KRBD/RBD METAR and TAF weather

Enter ICAO airport designator
Station Type Date Time Source
KRBD METAR 2019/08/21 02:53 UTC NOAA

KRBD 210253Z AUTO 14005KT 10SM CLR 32/20 A2997 RMK AO2 SLP138 T03220200 53013


Station Type Date Time Source
KRBD Decoded METAR 2019/08/21 02:53 UTC NOAA

Station name not available
Aug 20, 2019 - 10:53 PM EDT / 2019.08.21 0253 UTC
Wind: from the SE (140 degrees) at 6 MPH (5 KT):0
Visibility: 10 mile(s):0
Sky conditions: clear
Temperature: 90.0 F (32.2 C)
Dew Point: 68.0 F (20.0 C)
Relative Humidity: 48%
Pressure (altimeter): 29.97 in. Hg (1014 hPa)
Pressure tendency: 0.04 inches (1.3 hPa) higher than three hours ago
ob: KRBD 210253Z AUTO 14005KT 10SM CLR 32/20 A2997 RMK AO2 SLP138 T03220200 53013
cycle: 3

Station Type Date Time Source
KRBD TAF UTC NOAA

Error!

Example: see airport list